createdAt,value
2018-02-01T00:00:03.064Z,96385.89
2018-02-01T00:02:30.813Z,96386.94
2018-02-01T00:04:58.327Z,96380.99
2018-02-01T00:07:25.915Z,96382.41
2018-02-01T00:09:53.436Z,96383.10
2018-02-01T00:12:20.917Z,96382.95
2018-02-01T00:14:48.421Z,96369.22
2018-02-01T00:17:17.316Z,96370.47
2018-02-01T00:19:44.817Z,96379.80
2018-02-01T00:22:16.230Z,96369.95
2018-02-01T00:24:43.866Z,96369.81
2018-02-01T00:27:11.476Z,96368.87
2018-02-01T00:29:39.089Z,96371.55
2018-02-01T00:32:06.617Z,96362.97
2018-02-01T00:34:34.120Z,96363.86
2018-02-01T00:37:01.624Z,96358.78
2018-02-01T00:39:29.422Z,96364.57
2018-02-01T00:41:57.323Z,96354.30
2018-02-01T00:44:24.816Z,96362.98
2018-02-01T00:46:52.352Z,96359.58
2018-02-01T00:49:19.864Z,96359.53
2018-02-01T00:51:47.365Z,96351.07
2018-02-01T00:54:15.205Z,96360.56
2018-02-01T00:56:42.698Z,96364.22
2018-02-01T00:59:10.183Z,96354.59
2018-02-01T01:01:37.776Z,96359.23
2018-02-01T01:04:05.389Z,96360.02
2018-02-01T01:06:32.948Z,96360.22
2018-02-01T01:09:00.443Z,96362.45
2018-02-01T01:11:27.972Z,96355.42
2018-02-01T01:13:55.442Z,96359.69
2018-02-01T01:16:23.543Z,96364.61
2018-02-01T01:18:51.043Z,96362.53
2018-02-01T01:21:18.621Z,96363.98
2018-02-01T01:23:47.053Z,96367.80
2018-02-01T01:26:14.640Z,96366.71
2018-02-01T01:28:42.111Z,96372.92
2018-02-01T01:31:09.585Z,96379.99
2018-02-01T01:33:37.118Z,96385.29
2018-02-01T01:36:04.699Z,96382.52
2018-02-01T01:38:32.281Z,96385.31
2018-02-01T01:40:59.763Z,96398.31
2018-02-01T01:43:27.279Z,96390.84
2018-02-01T01:46:06.624Z,96393.55
2018-02-01T01:48:34.141Z,96383.72
2018-02-01T01:51:01.656Z,96383.81
2018-02-01T01:53:29.135Z,96381.92
2018-02-01T01:55:56.645Z,96380.59
2018-02-01T01:58:24.198Z,96380.50
2018-02-01T02:00:53.691Z,96382.66
2018-02-01T02:03:21.194Z,96385.50
2018-02-01T02:05:48.705Z,96382.88
2018-02-01T02:08:16.253Z,96379.05
2018-02-01T02:10:43.765Z,96390.60
2018-02-01T02:13:11.283Z,96387.04
2018-02-01T02:15:39.361Z,96383.33
2018-02-01T02:18:07.347Z,96377.52
2018-02-01T02:20:34.824Z,96384.25
2018-02-01T02:23:02.333Z,96391.48
2018-02-01T02:25:29.810Z,96383.62
2018-02-01T02:27:57.307Z,96384.84
2018-02-01T02:30:24.808Z,96392.67
2018-02-01T02:32:52.277Z,96380.84
2018-02-01T02:35:19.782Z,96381.97
2018-02-01T02:37:47.268Z,96389.50
2018-02-01T02:40:14.859Z,96387.66
2018-02-01T02:42:42.586Z,96390.71
2018-02-01T02:45:10.076Z,96392.35
2018-02-01T02:47:37.609Z,96388.59
2018-02-01T02:50:05.193Z,96387.59
2018-02-01T02:52:32.673Z,96387.13
2018-02-01T02:55:00.156Z,96387.30
2018-02-01T02:57:27.645Z,96383.73
2018-02-01T02:59:55.146Z,96389.77
2018-02-01T03:02:22.685Z,96388.79
2018-02-01T03:04:50.195Z,96392.36
2018-02-01T03:07:17.689Z,96396.80
2018-02-01T03:09:45.206Z,96393.80
2018-02-01T03:12:12.723Z,96392.83
2018-02-01T03:14:40.309Z,96386.88
2018-02-01T03:17:07.939Z,96389.98
2018-02-01T03:19:35.521Z,96393.44
2018-02-01T03:22:03.147Z,96383.09
2018-02-01T03:24:30.701Z,96383.02
2018-02-01T03:26:58.278Z,96382.98
2018-02-01T03:29:25.864Z,96384.09
2018-02-01T03:31:53.449Z,96378.73
2018-02-01T03:34:20.946Z,96379.23
2018-02-01T03:36:48.414Z,96371.27
2018-02-01T03:39:15.925Z,96374.31
2018-02-01T03:41:43.409Z,96366.73
2018-02-01T03:44:10.918Z,96363.99
2018-02-01T03:46:38.401Z,96368.48
2018-02-01T03:49:05.884Z,96360.13
2018-02-01T03:51:33.406Z,96361.31
2018-02-01T03:54:01.739Z,96354.67
2018-02-01T03:56:29.340Z,96361.21
2018-02-01T03:58:56.921Z,96362.03
2018-02-01T04:01:24.514Z,96362.92
2018-02-01T04:03:52.151Z,96358.53
2018-02-01T04:06:19.792Z,96365.25
2018-02-01T04:08:47.290Z,96361.21
2018-02-01T04:11:15.143Z,96360.45
2018-02-01T04:13:42.656Z,96361.00
2018-02-01T04:16:10.260Z,96358.67
2018-02-01T04:18:37.786Z,96361.00
2018-02-01T04:21:05.315Z,96362.86
2018-02-01T04:23:32.820Z,96357.95
2018-02-01T04:26:00.345Z,96346.87
2018-02-01T04:28:27.863Z,96346.17
2018-02-01T04:30:55.344Z,96350.21
2018-02-01T04:33:22.881Z,96346.81
2018-02-01T04:35:50.971Z,96348.84
2018-02-01T04:38:18.451Z,96347.11
2018-02-01T04:40:46.004Z,96349.44
2018-02-01T04:43:13.598Z,96338.98
2018-02-01T04:45:41.090Z,96346.38
2018-02-01T04:48:10.603Z,96341.81
2018-02-01T04:50:38.075Z,96345.97
2018-02-01T04:53:05.633Z,96347.06
2018-02-01T04:55:33.135Z,96342.45
2018-02-01T04:58:00.643Z,96345.44
2018-02-01T05:00:28.120Z,96351.32
2018-02-01T05:02:55.610Z,96348.92
2018-02-01T05:05:23.287Z,96344.69
2018-02-01T05:07:50.773Z,96352.41
2018-02-01T05:10:18.255Z,96344.48
2018-02-01T05:12:46.552Z,96353.62
2018-02-01T05:15:14.109Z,96362.23
2018-02-01T05:17:41.818Z,96349.94
2018-02-01T05:20:09.429Z,96349.50
2018-02-01T05:22:37.032Z,96348.13
2018-02-01T05:25:04.557Z,96352.34
2018-02-01T05:27:32.378Z,96344.23
2018-02-01T05:29:59.899Z,96347.91
2018-02-01T05:32:27.432Z,96342.99
2018-02-01T05:34:54.917Z,96344.09
2018-02-01T05:37:22.437Z,96348.56
2018-02-01T05:39:50.584Z,96349.35
2018-02-01T05:42:18.097Z,96345.08
2018-02-01T05:44:45.590Z,96346.27
2018-02-01T05:47:13.107Z,96351.94
2018-02-01T05:49:40.600Z,96351.28
2018-02-01T05:52:08.121Z,96350.35
2018-02-01T05:54:36.602Z,96351.69
2018-02-01T05:57:04.107Z,96346.89
2018-02-01T05:59:31.612Z,96350.28
2018-02-01T06:01:59.110Z,96354.97
2018-02-01T06:04:26.947Z,96357.02
2018-02-01T06:06:54.592Z,96358.59
2018-02-01T06:09:22.169Z,96355.88
2018-02-01T06:11:49.689Z,96368.77
2018-02-01T06:14:17.467Z,96362.92
2018-02-01T06:16:45.272Z,96367.65
2018-02-01T06:19:12.765Z,96372.67
2018-02-01T06:21:40.253Z,96366.13
2018-02-01T06:24:07.871Z,96378.72
2018-02-01T06:26:35.396Z,96379.34
2018-02-01T06:29:02.906Z,96373.10
2018-02-01T06:31:30.407Z,96378.61
2018-02-01T06:33:57.915Z,96382.77
2018-02-01T06:36:25.419Z,96384.89
2018-02-01T06:38:52.901Z,96388.80
2018-02-01T06:41:20.432Z,96380.83
2018-02-01T06:43:47.981Z,96377.05
2018-02-01T06:46:15.482Z,96381.66
2018-02-01T06:48:42.967Z,96385.50
2018-02-01T06:51:10.492Z,96385.14
2018-02-01T06:53:38.281Z,96388.83
2018-02-01T06:56:05.782Z,96386.95
2018-02-01T06:58:33.307Z,96385.22
2018-02-01T07:01:02.362Z,96381.50
2018-02-01T07:03:30.067Z,96376.19
2018-02-01T07:05:57.637Z,96379.41
2018-02-01T07:08:25.369Z,96376.02
2018-02-01T07:10:52.938Z,96382.91
2018-02-01T07:13:20.485Z,96390.08
2018-02-01T07:15:48.079Z,96396.14
2018-02-01T07:18:15.989Z,96392.75
2018-02-01T07:20:43.506Z,96398.16
2018-02-01T07:23:11.002Z,96406.53
2018-02-01T07:25:38.528Z,96406.66
2018-02-01T07:28:06.004Z,96409.34
2018-02-01T07:30:33.497Z,96413.77
2018-02-01T07:33:01.007Z,96416.21
2018-02-01T07:35:28.543Z,96418.50
2018-02-01T07:37:56.089Z,96414.13
2018-02-01T07:40:23.573Z,96421.00
2018-02-01T07:42:51.672Z,96423.69
2018-02-01T07:45:20.433Z,96429.89
2018-02-01T07:47:48.693Z,96422.05
2018-02-01T07:50:16.339Z,96424.80
2018-02-01T07:52:43.856Z,96416.52
2018-02-01T07:55:11.425Z,96419.03
2018-02-01T07:57:39.170Z,96416.80
2018-02-01T08:00:06.670Z,96418.58
2018-02-01T08:02:34.192Z,96419.07
2018-02-01T08:05:01.705Z,96426.92
2018-02-01T08:07:29.266Z,96420.94
2018-02-01T08:09:56.768Z,96417.48
2018-02-01T08:12:24.284Z,96422.50
2018-02-01T08:14:51.771Z,96427.67
2018-02-01T08:17:19.616Z,96416.74
2018-02-01T08:19:47.508Z,96422.92
2018-02-01T08:22:15.029Z,96421.45
2018-02-01T08:24:45.346Z,96425.26
2018-02-01T08:27:12.828Z,96421.97
2018-02-01T08:29:40.347Z,96424.95
2018-02-01T08:32:07.825Z,96428.50
2018-02-01T08:34:35.412Z,96418.34
2018-02-01T08:37:02.935Z,96424.36
2018-02-01T08:39:30.809Z,96440.39
2018-02-01T08:41:58.282Z,96456.66
2018-02-01T08:44:25.782Z,96455.06
2018-02-01T08:46:53.256Z,96459.90
2018-02-01T08:49:20.748Z,96452.41
2018-02-01T08:51:48.250Z,96462.70
2018-02-01T08:54:15.751Z,96468.86
2018-02-01T08:56:43.255Z,96468.20
2018-02-01T08:59:10.752Z,96457.09
2018-02-01T09:01:38.280Z,96465.83
2018-02-01T09:04:05.884Z,96470.50
2018-02-01T09:06:33.453Z,96467.95
2018-02-01T09:09:01.053Z,96472.72
2018-02-01T09:11:28.627Z,96470.76
2018-02-01T09:13:56.429Z,96473.73
2018-02-01T09:16:24.008Z,96479.78
2018-02-01T09:18:51.584Z,96483.91
2018-02-01T09:21:19.216Z,96485.16
2018-02-01T09:23:47.617Z,96482.86
2018-02-01T09:26:15.198Z,96484.71
2018-02-01T09:28:42.823Z,96491.00
2018-02-01T09:31:11.196Z,96485.83
2018-02-01T09:33:38.718Z,96488.87
2018-02-01T09:36:06.203Z,96485.45
2018-02-01T09:38:33.675Z,96485.20
2018-02-01T09:41:01.191Z,96487.46
2018-02-01T09:43:28.680Z,96484.73
2018-02-01T09:45:56.195Z,96485.98
2018-02-01T09:48:23.678Z,96488.59
2018-02-01T09:50:51.266Z,96488.34
2018-02-01T09:53:18.781Z,96494.10
2018-02-01T09:55:46.267Z,96489.82
2018-02-01T09:58:13.854Z,96505.51
2018-02-01T10:00:41.636Z,96504.17
2018-02-01T10:03:09.158Z,96496.42
2018-02-01T10:05:36.707Z,96506.35
2018-02-01T10:08:04.245Z,96511.69
2018-02-01T10:10:31.813Z,96508.91
2018-02-01T10:12:59.354Z,96504.51
2018-02-01T10:15:26.905Z,96510.07
2018-02-01T10:17:54.392Z,96502.24
2018-02-01T10:20:21.886Z,96509.22
2018-02-01T10:22:49.434Z,96500.84
2018-02-01T10:25:16.927Z,96506.80
2018-02-01T10:27:44.431Z,96501.80
2018-02-01T10:30:11.922Z,96493.53
2018-02-01T10:32:39.466Z,96505.25
2018-02-01T10:35:06.944Z,96498.59
2018-02-01T10:37:34.602Z,96495.41
2018-02-01T10:40:02.087Z,96497.84
2018-02-01T10:42:29.591Z,96512.88
2018-02-01T10:44:57.064Z,96512.80
2018-02-01T10:47:24.665Z,96505.98
2018-02-01T10:49:52.138Z,96512.01
2018-02-01T10:52:19.636Z,96512.34
2018-02-01T10:54:47.139Z,96515.25
2018-02-01T10:57:14.630Z,96504.66
2018-02-01T10:59:42.200Z,96495.64
2018-02-01T11:02:09.732Z,96509.45
2018-02-01T11:04:37.701Z,96516.73
2018-02-01T11:07:05.294Z,96508.95
2018-02-01T11:09:32.795Z,96524.24
2018-02-01T11:12:01.029Z,96522.03
2018-02-01T11:14:28.514Z,96514.65
2018-02-01T11:16:56.021Z,96520.73
2018-02-01T11:19:23.616Z,96511.48
2018-02-01T11:21:51.149Z,96524.84
2018-02-01T11:24:18.634Z,96513.06
2018-02-01T11:26:46.460Z,96505.65
2018-02-01T11:29:13.952Z,96515.38
2018-02-01T11:31:41.722Z,96517.91
2018-02-01T11:34:09.210Z,96513.35
2018-02-01T11:36:36.675Z,96512.94
2018-02-01T11:39:04.189Z,96501.73
2018-02-01T11:41:31.662Z,96505.67
2018-02-01T11:44:00.403Z,96500.73
2018-02-01T11:46:27.913Z,96512.53
2018-02-01T11:48:55.402Z,96512.11
2018-02-01T11:51:22.910Z,96514.71
2018-02-01T11:53:50.868Z,96516.53
2018-02-01T11:56:18.371Z,96507.85
2018-02-01T11:58:45.862Z,96504.10
2018-02-01T12:01:13.363Z,96507.56
2018-02-01T12:03:40.888Z,96515.22
2018-02-01T12:06:08.414Z,96517.13
2018-02-01T12:08:36.050Z,96512.64
2018-02-01T12:11:03.612Z,96524.49
2018-02-01T12:13:31.139Z,96518.17
2018-02-01T12:15:58.625Z,96529.22
2018-02-01T12:18:26.131Z,96512.48
2018-02-01T12:20:53.707Z,96510.59
2018-02-01T12:23:21.176Z,96517.03
2018-02-01T12:25:48.689Z,96513.17
2018-02-01T12:28:16.259Z,96520.11
2018-02-01T12:30:43.752Z,96522.25
2018-02-01T12:33:11.261Z,96514.59
2018-02-01T12:35:38.766Z,96513.34
2018-02-01T12:38:06.276Z,96509.44
2018-02-01T12:40:33.832Z,96504.30
2018-02-01T12:43:01.370Z,96503.70
2018-02-01T12:45:28.942Z,96507.31
2018-02-01T12:47:56.492Z,96505.50
2018-02-01T12:50:23.953Z,96502.58
2018-02-01T12:52:51.568Z,96503.52
2018-02-01T12:55:19.131Z,96517.45
2018-02-01T12:57:46.708Z,96510.87
2018-02-01T13:00:14.318Z,96522.02
2018-02-01T13:02:41.908Z,96526.89
2018-02-01T13:05:09.431Z,96534.20
2018-02-01T13:07:36.959Z,96540.56
2018-02-01T13:10:04.457Z,96527.45
2018-02-01T13:12:31.967Z,96529.52
2018-02-01T13:14:59.632Z,96518.48
2018-02-01T13:17:27.266Z,96514.92
2018-02-01T13:19:54.966Z,96495.63
2018-02-01T13:22:22.451Z,96504.98
2018-02-01T13:24:49.980Z,96510.90
2018-02-01T13:27:17.477Z,96513.08
2018-02-01T13:29:45.563Z,96501.22
2018-02-01T13:32:13.060Z,96510.30
2018-02-01T13:34:40.561Z,96506.55
2018-02-01T13:37:08.200Z,96503.71
2018-02-01T13:39:35.707Z,96503.03
2018-02-01T13:42:03.217Z,96501.67
2018-02-01T13:44:30.732Z,96498.47
2018-02-01T13:46:58.256Z,96505.39
2018-02-01T13:49:25.782Z,96507.63
2018-02-01T13:51:53.266Z,96496.48
2018-02-01T13:54:21.557Z,96490.48
2018-02-01T13:56:49.368Z,96500.72
2018-02-01T13:59:17.355Z,96515.38
2018-02-01T14:01:44.852Z,96441.55
2018-02-01T14:04:13.045Z,96509.42
2018-02-01T14:06:40.626Z,96510.83
2018-02-01T14:09:08.102Z,96511.95
2018-02-01T14:11:35.641Z,96508.13
2018-02-01T14:14:03.118Z,96501.95
2018-02-01T14:16:30.631Z,96501.06
2018-02-01T14:18:59.009Z,96509.13
2018-02-01T14:21:26.544Z,96511.74
2018-02-01T14:23:54.047Z,96502.72
2018-02-01T14:26:21.579Z,96502.53
2018-02-01T14:28:49.050Z,96508.77
2018-02-01T14:31:16.521Z,96513.70
2018-02-01T14:33:44.014Z,96504.65
2018-02-01T14:36:11.527Z,96498.30
2018-02-01T14:38:39.045Z,96503.37
2018-02-01T14:41:06.619Z,96494.58
2018-02-01T14:43:34.267Z,96498.98
2018-02-01T14:46:01.832Z,96503.63
2018-02-01T14:48:29.329Z,96494.13
2018-02-01T14:50:56.846Z,96498.06
2018-02-01T14:53:24.347Z,96504.10
2018-02-01T14:55:51.845Z,96508.56
2018-02-01T14:58:19.437Z,96504.30
2018-02-01T15:00:46.928Z,96510.06
2018-02-01T15:03:14.452Z,96498.57
2018-02-01T15:05:41.937Z,96499.11
2018-02-01T15:08:09.442Z,96503.66
2018-02-01T15:10:36.936Z,96505.16
2018-02-01T15:13:04.619Z,96504.03
2018-02-01T15:15:32.094Z,96506.44
2018-02-01T15:17:59.611Z,96506.53
2018-02-01T15:20:27.096Z,96509.19
2018-02-01T15:22:54.757Z,96507.09
2018-02-01T15:25:22.342Z,96512.20
2018-02-01T15:27:49.979Z,96501.80
2018-02-01T15:30:17.544Z,96492.44
2018-02-01T15:32:45.118Z,96486.38
2018-02-01T15:35:12.658Z,96489.20
2018-02-01T15:37:41.048Z,96488.76
2018-02-01T15:40:08.541Z,96494.77
2018-02-01T15:42:36.346Z,96494.89
2018-02-01T15:45:03.971Z,96497.22
2018-02-01T15:47:31.657Z,96499.60
2018-02-01T15:49:59.225Z,96496.78
2018-02-01T15:52:26.810Z,96499.70
2018-02-01T15:54:54.367Z,96499.83
2018-02-01T15:57:22.055Z,96504.48
2018-02-01T15:59:49.569Z,96508.20
2018-02-01T16:02:17.092Z,96509.95
2018-02-01T16:04:44.624Z,96513.13
2018-02-01T16:07:12.130Z,96515.12
2018-02-01T16:09:39.645Z,96517.07
2018-02-01T16:12:07.190Z,96518.42
2018-02-01T16:14:35.064Z,96517.09
2018-02-01T16:17:02.622Z,96520.36
2018-02-01T16:19:30.200Z,96518.02
2018-02-01T16:21:57.804Z,96516.97
2018-02-01T16:24:25.389Z,96522.91
2018-02-01T16:26:52.984Z,96524.52
2018-02-01T16:29:20.590Z,96525.34
2018-02-01T16:31:48.244Z,96527.19
2018-02-01T16:34:15.826Z,96525.20
2018-02-01T16:36:43.381Z,96518.78
2018-02-01T16:39:10.891Z,96522.69
2018-02-01T16:41:38.389Z,96518.86
2018-02-01T16:44:05.885Z,96523.11
2018-02-01T16:46:34.211Z,96525.91
2018-02-01T16:49:02.335Z,96524.43
2018-02-01T16:51:29.896Z,96521.44
2018-02-01T16:53:57.466Z,96526.30
2018-02-01T16:56:25.035Z,96523.17
2018-02-01T16:58:52.568Z,96527.44
2018-02-01T17:01:20.078Z,96521.27
2018-02-01T17:03:47.609Z,96526.73
2018-02-01T17:06:15.230Z,96529.80
2018-02-01T17:08:42.784Z,96532.20
2018-02-01T17:11:11.575Z,96534.66
2018-02-01T17:13:39.207Z,96538.18
2018-02-01T17:16:06.772Z,96536.75
2018-02-01T17:18:34.439Z,96533.99
2018-02-01T17:21:01.981Z,96530.67
2018-02-01T17:23:29.583Z,96540.17
2018-02-01T17:25:57.152Z,96540.41
2018-02-01T17:28:24.945Z,96536.21
2018-02-01T17:30:52.944Z,96530.77
2018-02-01T17:33:20.472Z,96532.81
2018-02-01T17:35:47.945Z,96534.59
2018-02-01T17:38:15.531Z,96541.77
2018-02-01T17:40:43.627Z,96537.89
2018-02-01T17:43:11.600Z,96549.42
2018-02-01T17:45:39.078Z,96548.38
2018-02-01T17:48:06.614Z,96548.11
2018-02-01T17:50:35.039Z,96551.84
2018-02-01T17:53:02.784Z,96550.67
2018-02-01T17:55:30.306Z,96553.27
2018-02-01T17:57:58.473Z,96544.33
2018-02-01T18:00:26.013Z,96551.73
2018-02-01T18:02:53.865Z,96550.42
2018-02-01T18:05:21.504Z,96548.89
2018-02-01T18:07:49.179Z,96547.27
2018-02-01T18:10:16.805Z,96546.17
2018-02-01T18:12:44.428Z,96543.27
2018-02-01T18:15:11.966Z,96544.39
2018-02-01T18:17:39.503Z,96542.54
2018-02-01T18:20:07.563Z,96550.36
2018-02-01T18:22:35.458Z,96552.62
2018-02-01T18:25:02.950Z,96549.42
2018-02-01T18:27:30.462Z,96546.81
2018-02-01T18:29:57.981Z,96545.84
2018-02-01T18:32:25.994Z,96538.59
2018-02-01T18:34:53.564Z,96548.45
2018-02-01T18:37:21.211Z,96553.53
2018-02-01T18:39:49.254Z,96554.03
2018-02-01T18:42:17.566Z,96553.90
2018-02-01T18:44:45.096Z,96548.05
2018-02-01T18:47:12.597Z,96545.53
2018-02-01T18:49:40.135Z,96545.47
2018-02-01T18:52:07.710Z,96543.72
2018-02-01T18:54:35.235Z,96548.88
2018-02-01T18:57:02.821Z,96549.73
2018-02-01T18:59:34.132Z,96554.52
2018-02-01T19:02:02.404Z,96539.17
2018-02-01T19:04:29.881Z,96545.89
2018-02-01T19:06:57.486Z,96559.96
2018-02-01T19:09:24.999Z,96550.72
2018-02-01T19:11:52.491Z,96553.41
2018-02-01T19:14:20.010Z,96559.86
2018-02-01T19:16:47.517Z,96554.72
2018-02-01T19:19:15.047Z,96564.46
2018-02-01T19:21:42.652Z,96559.69
2018-02-01T19:24:10.238Z,96559.77
2018-02-01T19:26:37.796Z,96564.33
2018-02-01T19:29:05.381Z,96560.92
2018-02-01T19:31:32.961Z,96571.61
2018-02-01T19:34:01.026Z,96572.95
2018-02-01T19:36:28.558Z,96576.71
2018-02-01T19:38:56.363Z,96566.84
2018-02-01T19:41:23.878Z,96557.93
2018-02-01T19:43:51.770Z,96565.98
2018-02-01T19:46:19.580Z,96569.09
2018-02-01T19:48:47.138Z,96571.92
2018-02-01T19:51:15.661Z,96583.94
2018-02-01T19:53:43.209Z,96584.30
2018-02-01T19:56:10.710Z,96584.67
2018-02-01T19:58:39.666Z,96590.02
2018-02-01T20:01:07.702Z,96584.53
2018-02-01T20:03:36.974Z,96592.77
2018-02-01T20:06:04.521Z,96591.66
2018-02-01T20:08:32.481Z,96595.91
2018-02-01T20:11:00.013Z,96600.39
2018-02-01T20:13:28.472Z,96603.23
2018-02-01T20:15:56.008Z,96606.17
2018-02-01T20:18:23.539Z,96603.48
2018-02-01T20:20:51.176Z,96612.05
2018-02-01T20:23:18.738Z,96611.65
2018-02-01T20:25:46.248Z,96613.42
2018-02-01T20:28:13.827Z,96613.78
2018-02-01T20:30:41.336Z,96617.22
2018-02-01T20:33:08.865Z,96624.52
2018-02-01T20:35:36.371Z,96623.87
2018-02-01T20:38:03.881Z,96628.22
2018-02-01T20:40:32.342Z,96622.00
2018-02-01T20:42:59.885Z,96626.86
2018-02-01T20:45:27.430Z,96621.77
2018-02-01T20:47:55.308Z,96625.50
2018-02-01T20:50:22.813Z,96625.81
2018-02-01T20:52:50.322Z,96629.27
2018-02-01T20:55:17.847Z,96634.20
2018-02-01T20:57:45.417Z,96627.27
2018-02-01T21:00:13.020Z,96634.22
2018-02-01T21:02:40.682Z,96634.73
2018-02-01T21:05:08.304Z,96634.73
2018-02-01T21:07:35.882Z,96635.66
2018-02-01T21:10:03.430Z,96637.67
2018-02-01T21:12:30.979Z,96638.08
2018-02-01T21:14:58.474Z,96635.41
2018-02-01T21:17:25.993Z,96632.89
2018-02-01T21:19:53.515Z,96645.38
2018-02-01T21:22:21.000Z,96640.99
2018-02-01T21:24:48.521Z,96639.41
2018-02-01T21:27:16.003Z,96646.70
2018-02-01T21:29:43.507Z,96644.59
2018-02-01T21:32:11.004Z,96642.78
2018-02-01T21:34:38.522Z,96652.93
2018-02-01T21:37:06.044Z,96656.92
2018-02-01T21:39:33.565Z,96655.63
2018-02-01T21:42:01.105Z,96656.33
2018-02-01T21:44:28.625Z,96658.45
2018-02-01T21:46:56.874Z,96660.84
2018-02-01T21:49:27.111Z,96659.78
2018-02-01T21:51:54.637Z,96656.22
2018-02-01T21:54:22.122Z,96661.24
2018-02-01T21:56:49.649Z,96658.45
2018-02-01T21:59:17.152Z,96655.13
2018-02-01T22:01:44.670Z,96662.84
2018-02-01T22:04:12.215Z,96663.11
2018-02-01T22:06:39.720Z,96657.92
2018-02-01T22:09:07.210Z,96651.02
2018-02-01T22:11:34.702Z,96654.97
2018-02-01T22:14:02.354Z,96651.66
2018-02-01T22:16:30.576Z,96654.44
2018-02-01T22:18:58.056Z,96658.92
2018-02-01T22:21:25.562Z,96665.73
2018-02-01T22:23:53.076Z,96663.30
2018-02-01T22:26:20.646Z,96670.34
2018-02-01T22:28:48.313Z,96670.74
2018-02-01T22:31:15.884Z,96679.61
2018-02-01T22:33:43.403Z,96678.55
2018-02-01T22:36:11.241Z,96684.75
2018-02-01T22:38:38.759Z,96690.27
2018-02-01T22:41:06.343Z,96693.98
2018-02-01T22:43:33.844Z,96693.86
2018-02-01T22:46:01.409Z,96698.76
2018-02-01T22:48:28.917Z,96694.70
2018-02-01T22:50:56.404Z,96699.23
2018-02-01T22:53:24.194Z,96692.45
2018-02-01T22:55:51.726Z,96703.61
2018-02-01T22:58:19.518Z,96704.01
2018-02-01T23:00:47.025Z,96698.97
2018-02-01T23:03:14.639Z,96699.77
2018-02-01T23:05:42.176Z,96701.64
2018-02-01T23:08:09.736Z,96699.23
2018-02-01T23:10:37.365Z,96695.13
2018-02-01T23:13:04.855Z,96703.08
2018-02-01T23:15:32.328Z,96704.50
2018-02-01T23:17:59.825Z,96704.11
2018-02-01T23:20:27.322Z,96705.61
2018-02-01T23:22:54.814Z,96698.69
2018-02-01T23:25:22.312Z,96699.51
2018-02-01T23:27:49.849Z,96705.08
2018-02-01T23:30:17.322Z,96700.70
2018-02-01T23:32:44.808Z,96699.49
2018-02-01T23:35:12.324Z,96704.69
2018-02-01T23:37:39.810Z,96704.42
2018-02-01T23:40:07.871Z,96703.87
2018-02-01T23:42:35.371Z,96707.56
2018-02-01T23:45:02.890Z,96696.41
2018-02-01T23:47:30.449Z,96694.04
2018-02-01T23:49:57.935Z,96694.30
2018-02-01T23:52:25.440Z,96699.10
2018-02-01T23:54:52.917Z,96703.63
2018-02-01T23:59:54.364Z,96703.20
